Mr Wayne — WDF5912 — position and weather

sailwx.info

Track history (hours):
 
Tides and Currents Weather Stations Pressure Air Temp Water Temp Dewpoint Dewpoint Depression Visibility Wind Speed Wind Dir Waves Ship Positions

Mr Wayne

Owner: Crosby Marine Transportation LLC, Golden Meadow, LA. More information available from US FCC via Universal Licensing System and Coast Guard Vessel Documentation Center.

Last reported at 2017-Nov-18 03:34 UTC. Time now 2017-Nov-22 07:09 UTC.
Position N 29°33' W 090°24'.

Length 20 m; draft 2.8 m.

Type: Towing. MMSI: 367468610.

Date/timePositionNaut miles runAvg speedWind from/ knotsBaromVisibWave heightAir tempDewpointWater temp
2017-Nov-18 03:34N 29°33' W 090°24'0 2.4
2017-Nov-18 03:30N 29°33' W 090°24'4 4.5
2017-Nov-18 02:37N 29°34' W 090°28'1 6.1
2017-Nov-18 02:30N 29°34' W 090°29'3 5.6
2017-Nov-18 02:00N 29°34' W 090°32'2 4.7
2017-Nov-18 01:29N 29°35' W 090°35'2 4.6
2017-Nov-18 01:00N 29°35' W 090°38'2 4.1
2017-Nov-18 00:30N 29°36' W 090°40'1 1.5
2017-Nov-18 00:00N 29°36' W 090°40'0 0.1
2017-Nov-17 23:30N 29°36' W 090°40'0 0.0
2017-Nov-17 23:00N 29°36' W 090°40'0 0.0
2017-Nov-17 22:30N 29°36' W 090°40'0 0.1
2017-Nov-17 22:00N 29°36' W 090°40'0 0.0
2017-Nov-17 21:30N 29°36' W 090°40'1 1.8
2017-Nov-17 21:00N 29°36' W 090°41'1 2.8
2017-Nov-17 20:30N 29°36' W 090°43'2 3.9
2017-Nov-17 20:00N 29°34' W 090°43'0 0.0
2017-Nov-17 19:30N 29°34' W 090°43'1 2.7
2017-Nov-17 19:00N 29°33' W 090°42'0 0.1
2017-Nov-17 18:30N 29°33' W 090°42'0 0.1
2017-Nov-17 18:00N 29°33' W 090°42'0 0.0
2017-Nov-17 17:30N 29°33' W 090°42'0 0.1
2017-Nov-17 17:00N 29°33' W 090°42'0 0.0
2017-Nov-17 16:30N 29°33' W 090°42'1 1.7
2017-Nov-17 16:00N 29°33' W 090°43'3 5.7
2017-Nov-17 15:30N 29°36' W 090°43'3 5.8
2017-Nov-17 15:00N 29°36' W 090°39'3 6.2
2017-Nov-17 14:30N 29°35' W 090°36'1 1.0
2017-Nov-17 14:00N 29°35' W 090°36'0 0.0
2017-Nov-17 13:30N 29°35' W 090°36'0 0.0
2017-Nov-17 13:00N 29°35' W 090°36'0 0.0
2017-Nov-17 12:30N 29°35' W 090°36'0 0.0
2017-Nov-17 12:00N 29°35' W 090°36'0 0.0
2017-Nov-17 11:30N 29°35' W 090°36'0 0.0
2017-Nov-17 11:00N 29°35' W 090°36'0 0.0
2017-Nov-17 10:30N 29°35' W 090°36'0 0.0
2017-Nov-17 10:00N 29°35' W 090°36'0 0.0
2017-Nov-17 09:30N 29°35' W 090°36'0 0.0
2017-Nov-17 09:00N 29°35' W 090°36'0 0.0
2017-Nov-17 08:30N 29°35' W 090°36'0 0.0
2017-Nov-17 08:00N 29°35' W 090°36'0 0.3
2017-Nov-17 07:30N 29°35' W 090°36'1 2.8
2017-Nov-17 07:00N 29°35' W 090°37'2 4.5
2017-Nov-17 06:30N 29°36' W 090°40'1 1.3
2017-Nov-17 06:00N 29°36' W 090°40'2 4.2
2017-Nov-17 05:30N 29°35' W 090°38'3 6.4
2017-Nov-17 05:00N 29°34' W 090°35'3 6.6
2017-Nov-17 04:30N 29°34' W 090°31'6 6.8
2017-Nov-17 03:38N 29°33' W 090°24'  
Track history (hours):
 
Tides and Currents Weather Stations Pressure Air Temp Water Temp Dewpoint Dewpoint Depression Visibility Wind Speed Wind Dir Waves Ship Positions

Mr Wayne

Owner: Crosby Marine Transportation LLC, Golden Meadow, LA. More information available from US FCC via Universal Licensing System and Coast Guard Vessel Documentation Center.

Last reported at 2017-Nov-18 03:34 UTC. Time now 2017-Nov-22 07:09 UTC.
Position N 29°33' W 090°24'.

Length 20 m; draft 2.8 m.

Type: Towing. MMSI: 367468610.

Date/timePositionNaut miles runAvg speedWind from/ knotsBaromVisibWave heightAir tempDewpointWater temp
2017-Nov-18 03:34N 29°33' W 090°24'0 2.4
2017-Nov-18 03:30N 29°33' W 090°24'4 4.5
2017-Nov-18 02:37N 29°34' W 090°28'1 6.1
2017-Nov-18 02:30N 29°34' W 090°29'3 5.6
2017-Nov-18 02:00N 29°34' W 090°32'2 4.7
2017-Nov-18 01:29N 29°35' W 090°35'2 4.6
2017-Nov-18 01:00N 29°35' W 090°38'2 4.1
2017-Nov-18 00:30N 29°36' W 090°40'1 1.5
2017-Nov-18 00:00N 29°36' W 090°40'0 0.1
2017-Nov-17 23:30N 29°36' W 090°40'0 0.0
2017-Nov-17 23:00N 29°36' W 090°40'0 0.0
2017-Nov-17 22:30N 29°36' W 090°40'0 0.1
2017-Nov-17 22:00N 29°36' W 090°40'0 0.0
2017-Nov-17 21:30N 29°36' W 090°40'1 1.8
2017-Nov-17 21:00N 29°36' W 090°41'1 2.8
2017-Nov-17 20:30N 29°36' W 090°43'2 3.9
2017-Nov-17 20:00N 29°34' W 090°43'0 0.0
2017-Nov-17 19:30N 29°34' W 090°43'1 2.7
2017-Nov-17 19:00N 29°33' W 090°42'0 0.1
2017-Nov-17 18:30N 29°33' W 090°42'0 0.1
2017-Nov-17 18:00N 29°33' W 090°42'0 0.0
2017-Nov-17 17:30N 29°33' W 090°42'0 0.1
2017-Nov-17 17:00N 29°33' W 090°42'0 0.0
2017-Nov-17 16:30N 29°33' W 090°42'1 1.7
2017-Nov-17 16:00N 29°33' W 090°43'3 5.7
2017-Nov-17 15:30N 29°36' W 090°43'3 5.8
2017-Nov-17 15:00N 29°36' W 090°39'3 6.2
2017-Nov-17 14:30N 29°35' W 090°36'1 1.0
2017-Nov-17 14:00N 29°35' W 090°36'0 0.0
2017-Nov-17 13:30N 29°35' W 090°36'0 0.0
2017-Nov-17 13:00N 29°35' W 090°36'0 0.0
2017-Nov-17 12:30N 29°35' W 090°36'0 0.0
2017-Nov-17 12:00N 29°35' W 090°36'0 0.0
2017-Nov-17 11:30N 29°35' W 090°36'0 0.0
2017-Nov-17 11:00N 29°35' W 090°36'0 0.0
2017-Nov-17 10:30N 29°35' W 090°36'0 0.0
2017-Nov-17 10:00N 29°35' W 090°36'0 0.0
2017-Nov-17 09:30N 29°35' W 090°36'0 0.0
2017-Nov-17 09:00N 29°35' W 090°36'0 0.0
2017-Nov-17 08:30N 29°35' W 090°36'0 0.0
2017-Nov-17 08:00N 29°35' W 090°36'0 0.3
2017-Nov-17 07:30N 29°35' W 090°36'1 2.8
2017-Nov-17 07:00N 29°35' W 090°37'2 4.5
2017-Nov-17 06:30N 29°36' W 090°40'1 1.3
2017-Nov-17 06:00N 29°36' W 090°40'2 4.2
2017-Nov-17 05:30N 29°35' W 090°38'3 6.4
2017-Nov-17 05:00N 29°34' W 090°35'3 6.6
2017-Nov-17 04:30N 29°34' W 090°31'6 6.8
2017-Nov-17 03:38N 29°33' W 090°24'  

Dump ship's entire track history